Time;durP1;ratioP1;P1;durP2;ratioP2;P2;SDS_P1;SDS_P2;PMS_P1;PMS_P2;Temp;Humidity;BMP_temperature;BMP_pressure;BME280_temperature;BME280_humidity;BME280_pressure;Samples;Min_cycle;Max_cycle;Signal;HPM_P1;HPM_P2
2022/03/11 00:00:24;;;;;;;13.83;7.50;;;;;;;-9.17;84.72;100653.64;1787385;80;22118;-77
2022/03/11 00:03:33;;;;;;;14.20;7.97;;;;;;;-9.17;84.74;100645.69;1787485;80;21176;-76
2022/03/11 00:06:32;;;;;;;15.18;7.85;;;;;;;-9.17;84.82;100640.39;1787567;80;21196;-81
2022/03/11 00:09:26;;;;;;;20.17;8.60;;;;;;;-9.20;84.86;100646.22;1787559;80;21211;-81
2022/03/11 00:12:11;;;;;;;15.35;7.50;;;;;;;-9.23;84.79;100648.48;1787514;80;21180;-81
2022/03/11 00:15:04;;;;;;;12.43;6.40;;;;;;;-9.23;84.72;100641.86;1787604;80;21192;-76
2022/03/11 00:17:50;;;;;;;13.80;7.20;;;;;;;-9.27;84.57;100638.89;1787456;80;21181;-79
2022/03/11 00:20:56;;;;;;;14.30;7.15;;;;;;;-9.32;84.43;100646.97;1786065;80;21160;-76
2022/03/11 00:24:01;;;;;;;13.15;6.85;;;;;;;-9.37;84.29;100646.69;1787504;80;21733;-77
2022/03/11 00:27:06;;;;;;;22.50;7.62;;;;;;;-9.40;84.32;100642.82;1787544;80;21200;-76
2022/03/11 00:30:13;;;;;;;10.70;6.33;;;;;;;-9.40;84.34;100633.55;1787503;80;21141;-80
2022/03/11 00:33:20;;;;;;;11.68;6.25;;;;;;;-9.42;84.24;100632.70;1787432;80;21175;-76
2022/03/11 00:36:25;;;;;;;11.65;6.67;;;;;;;-9.44;84.18;100630.56;1787593;80;21204;-81
2022/03/11 00:39:30;;;;;;;10.98;6.60;;;;;;;-9.47;84.17;100622.70;1787714;80;21583;-77
2022/03/11 00:42:35;;;;;;;10.18;5.92;;;;;;;-9.52;84.19;100617.06;1787457;80;21200;-76
2022/03/11 00:45:40;;;;;;;14.50;6.62;;;;;;;-9.56;84.21;100614.08;1787542;80;21188;-81
2022/03/11 00:48:41;;;;;;;10.75;6.80;;;;;;;-9.60;84.25;100616.40;1787377;80;21192;-81
2022/03/11 00:51:41;;;;;;;15.40;6.28;;;;;;;-9.64;84.38;100615.23;1783683;80;21153;-81
2022/03/11 00:54:46;;;;;;;14.47;7.10;;;;;;;-9.65;84.53;100608.17;1781706;80;21184;-81
2022/03/11 00:57:52;;;;;;;10.32;5.50;;;;;;;-9.70;84.56;100613.59;1781748;80;21239;-81
2022/03/11 01:00:57;;;;;;;11.10;5.65;;;;;;;-9.75;84.68;100615.50;1781803;80;21168;-81
2022/03/11 01:04:04;;;;;;;10.18;6.40;;;;;;;-9.77;84.87;100607.20;1781641;80;21181;-78
2022/03/11 01:07:08;;;;;;;11.12;6.47;;;;;;;-9.79;85.02;100609.87;1781708;80;21197;-77
2022/03/11 01:10:14;;;;;;;10.58;6.75;;;;;;;-9.79;85.05;100608.55;1781689;80;21197;-76
2022/03/11 01:13:19;;;;;;;16.00;6.90;;;;;;;-9.79;85.10;100611.19;1780450;80;21222;-76
2022/03/11 01:16:25;;;;;;;14.50;7.33;;;;;;;-9.78;85.11;100611.63;1781907;80;21671;-82
2022/03/11 01:19:31;;;;;;;15.28;6.47;;;;;;;-9.80;85.11;100609.47;1781182;80;21168;-77
2022/03/11 01:22:37;;;;;;;17.62;8.45;;;;;;;-9.77;85.33;100608.53;1781827;80;21176;-76
2022/03/11 01:25:43;;;;;;;13.13;6.45;;;;;;;-9.73;85.52;100622.09;1781842;80;21137;-77
2022/03/11 01:28:50;;;;;;;16.82;6.78;;;;;;;-9.67;85.64;100616.17;1781881;80;21185;-81
2022/03/11 01:31:56;;;;;;;15.68;6.87;;;;;;;-9.62;85.77;100628.83;1781743;80;21236;-76
2022/03/11 01:35:01;;;;;;;9.85;6.42;;;;;;;-9.57;85.89;100618.97;1781778;80;21193;-76
2022/03/11 01:38:08;;;;;;;11.53;7.33;;;;;;;-9.50;85.93;100617.47;1781898;80;21204;-77
2022/03/11 01:41:13;;;;;;;13.28;6.42;;;;;;;-9.50;85.92;100621.02;1781842;80;21181;-76
2022/03/11 01:44:19;;;;;;;13.68;6.85;;;;;;;-9.49;86.01;100613.94;1781817;80;21181;-81
2022/03/11 01:47:25;;;;;;;14.63;7.62;;;;;;;-9.47;86.09;100610.77;1781824;80;21224;-76
2022/03/11 01:50:30;;;;;;;16.07;6.40;;;;;;;-9.45;86.25;100606.33;1781771;80;21188;-81
2022/03/11 01:53:35;;;;;;;13.45;6.67;;;;;;;-9.42;86.35;100612.84;1779573;80;21761;-76
2022/03/11 01:56:41;;;;;;;11.28;7.25;;;;;;;-9.38;86.47;100615.36;1781845;80;21686;-77
2022/03/11 01:59:47;;;;;;;13.58;6.55;;;;;;;-9.33;86.50;100613.91;1781801;80;21686;-77
2022/03/11 02:02:55;;;;;;;16.07;7.10;;;;;;;-9.31;86.57;100611.64;1781883;80;21200;-77
2022/03/11 02:06:02;;;;;;;16.30;7.05;;;;;;;-9.28;86.58;100611.52;1781816;80;21771;-81
2022/03/11 02:09:01;;;;;;;13.93;7.35;;;;;;;-9.28;86.53;100613.31;1781784;80;21145;-81
2022/03/11 02:11:56;;;;;;;16.65;6.75;;;;;;;-9.26;86.58;100619.45;1755433;80;21173;-82
2022/03/11 02:14:42;;;;;;;10.23;6.67;;;;;;;-9.27;86.65;100613.29;1781965;80;21157;-77
2022/03/11 02:17:34;;;;;;;12.07;6.30;;;;;;;-9.25;86.69;100613.23;1781753;80;21188;-82
2022/03/11 02:20:21;;;;;;;18.40;6.85;;;;;;;-9.24;86.92;100612.31;1781718;80;21228;-76
2022/03/11 02:23:13;;;;;;;16.07;7.33;;;;;;;-9.21;87.11;100627.27;1781771;80;21177;-81
2022/03/11 02:26:18;;;;;;;10.93;7.07;;;;;;;-9.20;87.37;100619.27;1781996;80;21185;-81
2022/03/11 02:29:24;;;;;;;16.73;7.12;;;;;;;-9.19;87.56;100622.32;1781805;80;21161;-81
2022/03/11 02:32:29;;;;;;;14.50;6.78;;;;;;;-9.18;87.66;100621.86;1781819;80;21777;-76
2022/03/11 02:35:34;;;;;;;10.93;6.65;;;;;;;-9.21;87.75;100630.78;1781725;80;21188;-77
2022/03/11 02:38:39;;;;;;;11.03;6.40;;;;;;;-9.24;88.07;100628.21;1781809;80;21165;-76
2022/03/11 02:41:41;;;;;;;13.55;7.55;;;;;;;-9.24;88.46;100625.56;1781787;80;21188;-81
2022/03/11 02:44:47;;;;;;;17.15;7.00;;;;;;;-9.25;88.79;100630.91;1781690;80;21188;-81
2022/03/11 02:47:52;;;;;;;12.90;7.78;;;;;;;-9.27;89.20;100629.19;1781750;80;21200;-81
2022/03/11 02:50:57;;;;;;;10.90;6.65;;;;;;;-9.24;89.66;100621.59;1781748;80;21790;-77
2022/03/11 02:54:03;;;;;;;14.38;8.03;;;;;;;-9.20;90.00;100631.65;1782403;80;21785;-81
2022/03/11 02:57:09;;;;;;;13.75;6.87;;;;;;;-9.18;90.45;100628.02;1787568;80;21192;-82
2022/03/11 03:00:15;;;;;;;15.10;7.20;;;;;;;-9.17;90.83;100628.89;1787565;80;21188;-81
2022/03/11 03:03:22;;;;;;;12.13;6.60;;;;;;;-9.18;91.65;100627.16;1786036;80;21207;-80
2022/03/11 03:06:27;;;;;;;15.28;6.95;;;;;;;-9.20;91.83;100624.56;1787369;80;21176;-81
2022/03/11 03:09:36;;;;;;;11.33;6.10;;;;;;;-9.17;92.06;100639.49;1787663;80;21157;-77
2022/03/11 03:12:41;;;;;;;16.57;7.08;;;;;;;-9.18;92.17;100632.00;1787617;80;21216;-81
2022/03/11 03:15:47;;;;;;;13.78;6.95;;;;;;;-9.22;92.17;100630.37;1787567;80;21145;-80
2022/03/11 03:18:53;;;;;;;10.72;6.53;;;;;;;-9.23;92.14;100627.30;1787640;80;21161;-77
2022/03/11 03:21:58;;;;;;;20.25;7.92;;;;;;;-9.23;92.26;100634.38;1787442;80;21729;-77
2022/03/11 03:25:05;;;;;;;10.65;5.72;;;;;;;-9.25;92.28;100628.27;1787568;80;21188;-77
2022/03/11 03:28:04;;;;;;;13.60;6.95;;;;;;;-9.25;92.36;100634.43;1786052;80;21192;-81
2022/03/11 03:30:58;;;;;;;14.18;6.75;;;;;;;-9.24;92.43;100633.52;1787534;80;21192;-82
2022/03/11 03:33:45;;;;;;;13.62;7.70;;;;;;;-9.23;92.70;100637.89;1786063;80;21164;-77
2022/03/11 03:36:38;;;;;;;15.95;6.53;;;;;;;-9.22;93.13;100625.08;1786539;80;21196;-77
2022/03/11 03:39:24;;;;;;;13.45;7.35;;;;;;;-9.23;93.28;100637.89;1787606;80;21157;-81
2022/03/11 03:42:18;;;;;;;16.32;7.37;;;;;;;-9.23;93.26;100637.89;1787570;80;21208;-81
2022/03/11 03:45:06;;;;;;;20.08;7.45;;;;;;;-9.25;93.00;100639.73;1787594;80;21717;-78
2022/03/11 03:48:11;;;;;;;16.57;7.45;;;;;;;-9.28;93.03;100639.34;1787588;80;21196;-81
2022/03/11 03:51:16;;;;;;;12.03;6.58;;;;;;;-9.27;93.31;100653.03;1787492;80;21188;-81
2022/03/11 03:54:21;;;;;;;14.80;7.10;;;;;;;-9.24;93.46;100651.20;1786902;80;21216;-76
2022/03/11 03:57:27;;;;;;;13.98;6.92;;;;;;;-9.23;93.27;100654.25;1780985;80;21244;-76
2022/03/11 04:00:33;;;;;;;17.98;7.75;;;;;;;-9.22;93.17;100659.53;1781833;80;21730;-77
2022/03/11 04:03:40;;;;;;;11.73;7.53;;;;;;;-9.20;93.07;100662.98;1781776;80;21149;-81
2022/03/11 04:06:47;;;;;;;16.90;6.75;;;;;;;-9.16;92.98;100661.13;1781448;80;21722;-76
2022/03/11 04:09:53;;;;;;;13.22;7.40;;;;;;;-9.13;92.92;100667.64;1781727;80;21674;-81
2022/03/11 04:12:58;;;;;;;10.63;5.78;;;;;;;-9.11;92.54;100655.23;1781795;80;21172;-77
2022/03/11 04:16:04;;;;;;;19.00;7.78;;;;;;;-9.11;92.16;100672.00;1781670;80;21148;-82
2022/03/11 04:19:10;;;;;;;13.30;6.35;;;;;;;-9.12;91.78;100690.16;1781790;80;21148;-81
2022/03/11 04:22:16;;;;;;;12.25;6.87;;;;;;;-9.13;91.38;100672.48;1781681;80;21710;-77
2022/03/11 04:25:23;;;;;;;13.90;6.92;;;;;;;-9.10;91.19;100664.92;1781857;80;21142;-76
2022/03/11 04:28:27;;;;;;;11.22;6.17;;;;;;;-9.08;90.72;100676.33;1781755;80;21136;-81
2022/03/11 04:31:33;;;;;;;12.95;6.25;;;;;;;-9.08;90.35;100673.25;1781696;80;21782;-76
2022/03/11 04:34:38;;;;;;;11.10;6.95;;;;;;;-9.06;90.01;100670.55;1781868;80;21714;-81
2022/03/11 04:37:43;;;;;;;11.78;7.12;;;;;;;-9.06;89.80;100678.04;1780629;80;21224;-82
2022/03/11 04:40:50;;;;;;;13.38;7.83;;;;;;;-9.04;89.74;100678.85;1781538;80;21201;-75
2022/03/11 04:43:56;;;;;;;12.50;7.25;;;;;;;-8.99;89.52;100685.80;1781671;80;21722;-81
2022/03/11 04:47:03;;;;;;;12.05;7.28;;;;;;;-8.97;89.42;100681.34;1780150;80;21812;-75
2022/03/11 04:50:13;;;;;;;15.78;8.30;;;;;;;-8.94;89.31;100679.45;1781818;80;21784;-81
2022/03/11 04:53:20;;;;;;;9.53;6.55;;;;;;;-8.86;89.13;100691.17;1781487;80;21200;-76
2022/03/11 04:56:26;;;;;;;11.38;6.40;;;;;;;-8.79;88.79;100702.03;1779662;80;21749;-75
2022/03/11 04:59:33;;;;;;;10.25;6.42;;;;;;;-8.72;88.63;100708.88;1780199;80;21212;-77
2022/03/11 05:02:34;;;;;;;13.13;7.05;;;;;;;-8.66;88.41;100703.38;1780975;80;21192;-82
2022/03/11 05:05:41;;;;;;;13.55;7.28;;;;;;;-8.64;88.19;100704.22;1781939;80;21217;-82
2022/03/11 05:08:46;;;;;;;17.75;7.60;;;;;;;-8.61;87.92;100700.59;1780458;80;21370;-78
2022/03/11 05:11:52;;;;;;;16.52;7.25;;;;;;;-8.59;87.71;100707.59;1781806;80;21224;-77
2022/03/11 05:15:00;;;;;;;16.27;8.28;;;;;;;-8.62;87.49;100710.33;1781822;80;21157;-83
2022/03/11 05:18:05;;;;;;;10.35;6.78;;;;;;;-8.60;87.46;100724.89;1781709;80;21204;-83
2022/03/11 05:21:13;;;;;;;16.00;7.47;;;;;;;-8.58;87.12;100717.28;1781894;80;21149;-78
2022/03/11 05:24:18;;;;;;;15.32;7.97;;;;;;;-8.55;87.04;100718.99;1781851;80;21188;-78
2022/03/11 05:27:25;;;;;;;11.70;7.70;;;;;;;-8.53;87.09;100725.97;1781748;80;21181;-83
2022/03/11 05:30:30;;;;;;;13.83;7.55;;;;;;;-8.48;86.85;100735.58;1781903;80;21205;-79
2022/03/11 05:33:35;;;;;;;14.30;8.75;;;;;;;-8.41;86.88;100728.73;1781926;80;21208;-79
2022/03/11 05:36:40;;;;;;;14.35;7.83;;;;;;;-8.35;86.73;100731.61;1781774;80;21770;-75
2022/03/11 05:39:47;;;;;;;16.27;8.03;;;;;;;-8.31;86.45;100734.12;1781672;80;21136;-80
2022/03/11 05:42:53;;;;;;;16.20;7.67;;;;;;;-8.22;86.46;100740.08;1780574;80;21196;-80
2022/03/11 05:46:00;;;;;;;14.93;7.58;;;;;;;-8.18;86.01;100737.28;1781644;80;21710;-78
2022/03/11 05:49:06;;;;;;;17.67;7.20;;;;;;;-8.13;85.73;100735.34;1780417;80;21236;-83
2022/03/11 05:52:12;;;;;;;15.10;7.92;;;;;;;-8.07;85.46;100755.06;1781030;80;21185;-80
2022/03/11 05:55:19;;;;;;;18.55;9.33;;;;;;;-7.99;85.55;100738.89;1781681;80;21196;-79
2022/03/11 05:58:26;;;;;;;18.40;7.92;;;;;;;-7.87;85.29;100754.88;1780420;80;21181;-81
2022/03/11 06:01:32;;;;;;;17.75;9.18;;;;;;;-7.80;85.07;100748.47;1781872;80;22096;-76
2022/03/11 06:04:37;;;;;;;14.95;8.13;;;;;;;-7.72;84.89;100745.94;1781844;80;21141;-80
2022/03/11 06:07:44;;;;;;;13.62;7.03;;;;;;;-7.65;84.62;100749.75;1781728;80;21192;-76
2022/03/11 06:10:43;;;;;;;12.98;7.37;;;;;;;-7.57;84.40;100743.27;1781812;80;21156;-78
2022/03/11 06:13:50;;;;;;;14.23;6.53;;;;;;;-7.46;84.28;100742.43;1781688;80;21182;-78
2022/03/11 06:16:56;;;;;;;15.80;7.95;;;;;;;-7.37;83.36;100739.06;1781629;80;21732;-80
2022/03/11 06:20:02;;;;;;;13.13;8.10;;;;;;;-7.33;82.80;100738.04;1781740;80;21473;-77
2022/03/11 06:23:09;;;;;;;15.93;8.38;;;;;;;-7.23;82.96;100743.44;1781478;80;21190;-76
2022/03/11 06:26:15;;;;;;;13.10;6.45;;;;;;;-7.15;82.84;100765.31;1781211;80;21149;-76
2022/03/11 06:29:20;;;;;;;14.45;7.65;;;;;;;-6.99;82.84;100747.02;1781514;80;21177;-76
2022/03/11 06:32:25;;;;;;;14.33;8.15;;;;;;;-6.98;81.76;100738.98;1781768;80;21203;-77
2022/03/11 06:35:32;;;;;;;14.05;8.38;;;;;;;-6.93;81.57;100740.14;1781805;80;21157;-82
2022/03/11 06:38:37;;;;;;;18.15;8.65;;;;;;;-6.87;81.11;100731.06;1781098;80;21196;-76
2022/03/11 06:41:42;;;;;;;15.05;8.58;;;;;;;-6.73;80.93;100734.09;1781099;80;21208;-82
2022/03/11 06:44:50;;;;;;;16.23;8.78;;;;;;;-6.55;80.47;100734.73;1781128;80;21207;-77
2022/03/11 06:47:55;;;;;;;16.50;8.90;;;;;;;-6.44;78.83;100743.20;1781601;80;21228;-82
2022/03/11 06:51:04;;;;;;;19.23;9.30;;;;;;;-6.40;77.91;100751.91;1784664;80;21770;-82
2022/03/11 06:54:09;;;;;;;13.65;8.65;;;;;;;-6.40;76.79;100747.05;1801499;79;21156;-77
2022/03/11 06:57:19;;;;;;;16.37;8.35;;;;;;;-6.54;75.63;100740.48;1804954;79;21801;-82
2022/03/11 07:00:22;;;;;;;23.10;11.03;;;;;;;-6.66;75.96;100756.90;1781078;80;21208;-82
2022/03/11 07:03:28;;;;;;;16.07;8.75;;;;;;;-6.70;76.48;100745.95;1800989;79;21158;-77
2022/03/11 07:06:34;;;;;;;20.20;10.10;;;;;;;-6.62;76.63;100737.70;1800403;79;21192;-76
2022/03/11 07:09:39;;;;;;;13.93;8.63;;;;;;;-6.55;76.89;100738.72;1798958;78;21196;-82
2022/03/11 07:12:45;;;;;;;20.62;10.05;;;;;;;-6.38;76.82;100761.19;1799502;79;21704;-82
2022/03/11 07:15:50;;;;;;;18.10;9.55;;;;;;;-6.36;76.71;100745.55;1832656;77;21430;-81
2022/03/11 07:18:57;;;;;;;19.87;8.90;;;;;;;-6.31;76.39;100749.36;1827889;77;21669;-81
2022/03/11 07:22:10;;;;;;;20.77;9.55;;;;;;;-6.37;75.32;100754.94;1832811;77;21158;-82
2022/03/11 07:25:17;;;;;;;18.37;10.10;;;;;;;-6.30;76.14;100756.45;1821530;77;21225;-82
2022/03/11 07:28:21;;;;;;;19.60;10.13;;;;;;;-6.27;75.85;100762.97;1821720;77;21184;-82
2022/03/11 07:31:27;;;;;;;22.20;9.90;;;;;;;-6.22;75.44;100751.67;1822312;77;21755;-83
2022/03/11 07:34:34;;;;;;;19.57;10.25;;;;;;;-6.34;75.01;100766.80;1821619;77;21385;-82
2022/03/11 07:37:40;;;;;;;18.67;10.18;;;;;;;-6.44;75.52;100760.50;1809874;78;21188;-82
2022/03/11 07:40:46;;;;;;;14.47;8.15;;;;;;;-6.52;75.41;100768.36;1827094;77;21220;-82
2022/03/11 07:43:52;;;;;;;16.57;9.40;;;;;;;-6.40;76.25;100760.36;1825689;77;21794;-77
2022/03/11 07:47:00;;;;;;;18.50;9.48;;;;;;;-6.20;75.91;100764.48;1818585;78;21169;-77
2022/03/11 07:50:05;;;;;;;20.12;10.03;;;;;;;-6.13;76.15;100762.44;1821300;78;21233;-77
2022/03/11 07:53:12;;;;;;;18.70;10.08;;;;;;;-6.03;76.07;100767.34;1815011;78;21180;-77
2022/03/11 07:56:17;;;;;;;22.27;10.43;;;;;;;-5.93;75.76;100773.16;1820863;78;21167;-77
2022/03/11 07:59:28;;;;;;;26.33;10.38;;;;;;;-6.01;74.83;100770.83;1783200;80;21578;-82
2022/03/11 08:02:32;;;;;;;26.68;11.35;;;;;;;-6.10;75.26;100768.98;1818441;79;21806;-82
2022/03/11 08:05:37;;;;;;;20.40;10.45;;;;;;;-6.14;76.57;100764.23;1818767;79;21164;-77
2022/03/11 08:08:44;;;;;;;26.15;11.43;;;;;;;-5.99;77.65;100765.42;1787028;80;21154;-77
2022/03/11 08:11:49;;;;;;;17.32;9.78;;;;;;;-5.80;76.98;100754.87;1816447;79;21730;-77
2022/03/11 08:14:57;;;;;;;21.05;11.63;;;;;;;-5.62;75.81;100776.78;1819825;79;21144;-82
2022/03/11 08:18:03;;;;;;;20.05;10.60;;;;;;;-5.57;74.55;100777.92;1796195;79;21185;-77
2022/03/11 08:21:11;;;;;;;13.85;8.95;;;;;;;-5.62;74.03;100767.92;1811062;79;21129;-82
2022/03/11 08:24:16;;;;;;;19.17;9.50;;;;;;;-5.57;75.55;100773.92;1788644;79;21194;-77
2022/03/11 08:27:21;;;;;;;20.90;10.10;;;;;;;-5.59;74.81;100782.00;1824338;77;21164;-82
2022/03/11 08:30:26;;;;;;;16.17;9.45;;;;;;;-5.61;74.32;100773.17;1786569;80;21231;-78
2022/03/11 08:33:35;;;;;;;19.30;10.00;;;;;;;-5.59;75.43;100780.66;1818496;79;21592;-83
2022/03/11 08:36:41;;;;;;;18.15;10.05;;;;;;;-5.61;75.14;100765.65;1818702;79;21212;-82
2022/03/11 08:39:47;;;;;;;26.42;11.45;;;;;;;-5.62;74.93;100772.78;1790149;77;21464;-77
2022/03/11 08:42:52;;;;;;;23.32;9.65;;;;;;;-5.61;75.87;100762.52;1790643;79;21169;-77
2022/03/11 08:45:57;;;;;;;19.77;9.35;;;;;;;-5.66;76.35;100780.03;1823725;77;21183;-82
2022/03/11 08:49:03;;;;;;;25.43;11.70;;;;;;;-5.73;76.63;100766.56;1831456;77;21148;-83
2022/03/11 08:52:10;;;;;;;16.90;9.68;;;;;;;-5.79;76.89;100770.78;1808517;79;21132;-77
2022/03/11 08:55:17;;;;;;;17.25;9.08;;;;;;;-5.69;77.18;100768.65;1824725;77;21265;-83
2022/03/11 08:58:22;;;;;;;17.45;9.40;;;;;;;-5.44;76.77;100773.83;1795879;79;21178;-82
2022/03/11 09:01:28;;;;;;;19.70;9.35;;;;;;;-5.22;77.55;100790.67;1822740;77;21160;-77
2022/03/11 09:04:35;;;;;;;21.05;9.18;;;;;;;-5.20;76.95;100791.93;1789862;79;21507;-77
2022/03/11 09:07:41;;;;;;;19.35;9.38;;;;;;;-5.23;77.21;100793.38;1806242;78;21180;-77
2022/03/11 09:10:49;;;;;;;16.93;9.55;;;;;;;-5.24;76.22;100801.85;1802953;78;21239;-76
2022/03/11 09:13:56;;;;;;;16.35;9.95;;;;;;;-5.18;76.53;100791.39;1803715;78;21191;-77
2022/03/11 09:17:04;;;;;;;19.95;9.88;;;;;;;-5.04;77.01;100812.14;1810168;78;21179;-76
2022/03/11 09:20:10;;;;;;;17.52;9.93;;;;;;;-4.95;75.55;100794.41;1809770;78;21721;-76
2022/03/11 09:23:18;;;;;;;19.55;11.05;;;;;;;-4.92;73.81;100787.14;1801346;78;21191;-76
2022/03/11 09:26:23;;;;;;;16.67;10.05;;;;;;;-4.89;75.15;100816.37;1820760;77;21214;-76
2022/03/11 09:29:32;;;;;;;18.37;10.48;;;;;;;-4.81;75.80;100809.36;1789261;78;21485;-77
2022/03/11 09:32:38;;;;;;;17.55;10.30;;;;;;;-4.53;75.97;100795.66;1787667;79;21234;-82
2022/03/11 09:35:44;;;;;;;16.70;9.23;;;;;;;-4.25;73.43;100809.09;1806484;78;21156;-76
2022/03/11 09:38:50;;;;;;;22.60;10.80;;;;;;;-4.09;72.48;100807.47;1825455;77;21177;-82
2022/03/11 09:41:57;;;;;;;19.27;10.28;;;;;;;-4.11;70.67;100804.84;1798958;78;21698;-82
2022/03/11 09:45:03;;;;;;;16.45;9.23;;;;;;;-4.14;71.01;100801.45;1806594;78;21128;-82
2022/03/11 09:48:10;;;;;;;16.75;9.63;;;;;;;-4.05;72.05;100806.36;1805443;78;21190;-81
2022/03/11 09:51:16;;;;;;;14.70;8.43;;;;;;;-3.96;71.59;100804.59;1804224;78;21706;-82
2022/03/11 09:54:16;;;;;;;26.02;10.25;;;;;;;-3.88;72.06;100803.77;1814104;78;21168;-76
2022/03/11 09:57:27;;;;;;;16.12;9.65;;;;;;;-3.91;73.37;100823.95;1819468;78;21140;-82
2022/03/11 10:00:32;;;;;;;17.60;8.73;;;;;;;-3.98;74.18;100802.48;1800784;79;21701;-81
2022/03/11 10:03:38;;;;;;;16.10;10.45;;;;;;;-3.89;74.72;100814.08;1806291;78;21443;-77
2022/03/11 10:06:54;;;;;;;23.75;9.95;;;;;;;-3.88;73.12;100809.59;1801764;79;21726;-77
2022/03/11 10:10:00;;;;;;;19.82;10.82;;;;;;;-3.88;73.52;100809.13;1801902;79;21161;-76
2022/03/11 10:13:08;;;;;;;16.60;11.05;;;;;;;-3.89;75.25;100803.86;1801020;79;21156;-82
2022/03/11 10:16:29;;;;;;;20.30;10.40;;;;;;;-3.98;77.47;100813.17;1801838;79;21149;-81
2022/03/11 10:19:36;;;;;;;19.55;10.70;;;;;;;-4.00;77.82;100807.48;1792610;79;21156;-82
2022/03/11 10:22:49;;;;;;;14.95;9.28;;;;;;;-4.00;76.33;100795.02;1800951;79;21227;-77
2022/03/11 10:26:00;;;;;;;15.18;9.45;;;;;;;-3.90;75.71;100805.67;1801023;79;21702;-77
2022/03/11 10:29:10;;;;;;;17.35;10.35;;;;;;;-3.81;75.21;100811.49;1801396;79;21156;-77
2022/03/11 10:32:15;;;;;;;16.95;10.43;;;;;;;-3.71;75.12;100806.13;1806144;77;21154;-81
2022/03/11 10:35:22;;;;;;;18.77;10.23;;;;;;;-3.65;74.26;100808.50;1832832;77;21783;-81
2022/03/11 10:38:36;;;;;;;18.02;10.15;;;;;;;-3.81;74.16;100815.50;1850712;77;21117;-77
2022/03/11 10:41:41;;;;;;;18.05;10.25;;;;;;;-3.99;76.07;100823.47;1834492;77;21180;-82
2022/03/11 10:44:46;;;;;;;14.83;10.63;;;;;;;-4.03;74.89;100818.34;1854660;77;21145;-81
2022/03/11 10:47:52;;;;;;;18.55;11.33;;;;;;;-4.01;75.07;100832.01;1854595;77;21196;-77
2022/03/11 10:50:59;;;;;;;21.35;12.13;;;;;;;-3.97;74.21;100815.38;1784550;80;21156;-81
2022/03/11 10:54:04;;;;;;;17.27;10.45;;;;;;;-4.03;74.07;100839.25;1790188;80;21692;-81
2022/03/11 10:57:15;;;;;;;17.87;10.43;;;;;;;-4.12;73.71;100831.17;1785280;80;21219;-76
2022/03/11 11:00:41;;;;;;;15.32;10.38;;;;;;;-4.21;73.79;100839.61;1790208;80;21145;-81
2022/03/11 11:03:50;;;;;;;20.60;11.43;;;;;;;-4.31;73.74;100846.31;1787946;80;21722;-76
2022/03/11 11:06:56;;;;;;;21.45;11.18;;;;;;;-4.45;74.75;100827.37;1815130;78;21164;-76
2022/03/11 11:10:04;;;;;;;15.23;10.48;;;;;;;-4.42;75.26;100816.56;1808785;78;21171;-81
2022/03/11 11:13:11;;;;;;;17.00;10.78;;;;;;;-4.29;75.00;100830.20;1805005;77;21153;-76
2022/03/11 11:16:17;;;;;;;18.70;11.60;;;;;;;-4.19;74.94;100815.48;1798953;78;21125;-77
2022/03/11 11:19:26;;;;;;;17.90;10.10;;;;;;;-4.16;74.20;100823.37;1776075;80;21160;-82
2022/03/11 11:22:33;;;;;;;18.55;11.00;;;;;;;-4.14;74.06;100825.48;1803218;78;21164;-82
2022/03/11 11:25:38;;;;;;;13.62;9.08;;;;;;;-4.15;74.31;100825.09;1796644;79;21679;-76
2022/03/11 11:28:45;;;;;;;13.62;9.18;;;;;;;-4.19;73.78;100817.72;1802729;78;21702;-82
2022/03/11 11:31:52;;;;;;;15.55;9.83;;;;;;;-4.21;73.96;100817.38;1823982;77;21171;-82
2022/03/11 11:34:58;;;;;;;18.40;10.05;;;;;;;-4.18;77.08;100805.22;1794531;79;21185;-82
2022/03/11 11:38:04;;;;;;;18.02;10.53;;;;;;;-4.08;76.52;100821.22;1811257;78;21176;-76
2022/03/11 11:41:27;;;;;;;22.58;10.30;;;;;;;-3.97;75.04;100797.53;1804654;78;21172;-76
2022/03/11 11:44:41;;;;;;;17.15;9.95;;;;;;;-3.97;73.71;100825.59;1811834;78;21151;-76
2022/03/11 11:47:48;;;;;;;23.80;11.22;;;;;;;-3.97;73.93;100792.18;1813815;78;21128;-76
2022/03/11 11:50:53;;;;;;;17.17;9.85;;;;;;;-3.93;73.11;100812.48;1807060;78;21112;-77
2022/03/11 11:54:10;;;;;;;16.20;9.55;;;;;;;-3.96;72.58;100820.63;1817036;77;21113;-81
2022/03/11 11:57:19;;;;;;;13.98;9.63;;;;;;;-4.09;72.99;100819.50;1826362;77;21121;-76
2022/03/11 12:00:41;;;;;;;16.77;9.55;;;;;;;-4.09;73.87;100811.48;1808166;78;21158;-76
2022/03/11 12:03:57;;;;;;;17.52;10.23;;;;;;;-4.02;74.00;100800.89;1822413;77;21145;-82
2022/03/11 12:07:05;;;;;;;17.67;9.93;;;;;;;-3.98;74.43;100809.63;1798205;78;21184;-81
2022/03/11 12:10:30;;;;;;;17.95;10.40;;;;;;;-3.95;74.17;100826.40;1816509;78;21117;-82
2022/03/11 12:13:42;;;;;;;15.15;9.25;;;;;;;-3.92;74.10;100812.87;1818895;78;21528;-77
2022/03/11 12:17:11;;;;;;;16.52;9.10;;;;;;;-3.86;72.51;100831.32;1817702;78;21241;-76
2022/03/11 12:20:48;;;;;;;16.25;9.30;;;;;;;-3.88;72.36;100827.83;1816877;78;21141;-76
2022/03/11 12:23:56;;;;;;;16.07;9.63;;;;;;;-3.90;73.70;100836.41;1816399;78;21571;-82
2022/03/11 12:27:02;;;;;;;14.40;7.92;;;;;;;-3.94;76.28;100825.45;1820969;78;21175;-81
2022/03/11 12:30:14;;;;;;;16.55;9.98;;;;;;;-3.96;75.00;100842.48;1819107;78;21691;-82
2022/03/11 12:33:31;;;;;;;15.95;9.98;;;;;;;-3.97;73.71;100852.31;1823021;78;21154;-76
2022/03/11 12:36:37;;;;;;;14.80;9.33;;;;;;;-3.91;73.84;100834.64;1820594;78;21156;-82
2022/03/11 12:39:43;;;;;;;18.45;9.73;;;;;;;-3.91;73.13;100844.00;1810454;78;21157;-82
2022/03/11 12:42:50;;;;;;;16.93;9.68;;;;;;;-3.86;73.84;100858.05;1806213;79;21197;-82
2022/03/11 12:46:00;;;;;;;14.38;8.03;;;;;;;-3.80;74.40;100850.68;1807480;78;21189;-76
2022/03/11 12:49:06;;;;;;;15.40;9.55;;;;;;;-3.86;73.60;100853.14;1817522;78;21135;-82
2022/03/11 12:52:27;;;;;;;14.90;8.28;;;;;;;-3.96;73.30;100848.70;1817909;78;21724;-82
2022/03/11 12:55:40;;;;;;;18.50;9.08;;;;;;;-4.00;73.06;100844.90;1819683;78;21664;-82
2022/03/11 12:58:45;;;;;;;15.60;10.45;;;;;;;-4.05;72.96;100858.47;1807465;79;21737;-82
2022/03/11 13:01:52;;;;;;;15.90;9.30;;;;;;;-4.02;74.57;100857.00;1736332;82;21197;-76
2022/03/11 13:04:58;;;;;;;14.43;9.53;;;;;;;-3.88;75.06;100874.61;1784987;80;21757;-77
2022/03/11 13:08:16;;;;;;;16.82;9.50;;;;;;;-3.93;74.11;100882.45;1793749;78;21467;-83
2022/03/11 13:11:23;;;;;;;15.43;9.38;;;;;;;-4.01;74.22;100887.27;1790594;80;21254;-76
2022/03/11 13:14:31;;;;;;;16.02;9.05;;;;;;;-4.04;74.77;100868.25;1783249;79;21141;-82
2022/03/11 13:17:36;;;;;;;21.68;10.68;;;;;;;-4.03;74.97;100862.43;1795315;79;21767;-82
2022/03/11 13:20:45;;;;;;;19.55;9.38;;;;;;;-4.04;74.71;100877.60;1757425;80;21145;-77
2022/03/11 13:23:46;;;;;;;14.98;9.20;;;;;;;-3.99;75.14;100872.05;1789764;79;21131;-76
2022/03/11 13:26:34;;;;;;;16.75;10.43;;;;;;;-3.93;74.71;100879.30;1794944;79;21184;-76
2022/03/11 13:29:27;;;;;;;16.65;8.58;;;;;;;-4.00;73.72;100897.01;1810956;79;21180;-79
2022/03/11 13:32:13;;;;;;;16.80;9.30;;;;;;;-4.08;73.89;100878.67;1806455;78;21172;-76
2022/03/11 13:35:05;;;;;;;21.45;9.28;;;;;;;-4.07;74.96;100885.75;1783344;79;21682;-76
2022/03/11 13:37:52;;;;;;;16.40;9.00;;;;;;;-4.11;74.11;100891.69;1757798;79;21162;-76
2022/03/11 13:40:56;;;;;;;20.70;9.58;;;;;;;-4.17;76.44;100887.09;1750371;81;21134;-76
2022/03/11 13:44:17;;;;;;;16.50;10.05;;;;;;;-4.21;76.75;100889.50;1795948;80;21175;-77
2022/03/11 13:47:24;;;;;;;18.95;10.45;;;;;;;-4.25;76.61;100881.22;1765969;81;21733;-76
2022/03/11 13:50:34;;;;;;;12.68;7.90;;;;;;;-4.24;75.73;100897.64;1766542;81;21717;-77
2022/03/11 13:53:40;;;;;;;15.80;9.08;;;;;;;-4.35;74.56;100906.61;1741718;81;21229;-76
2022/03/11 13:56:49;;;;;;;17.35;9.80;;;;;;;-4.41;75.53;100895.73;1765762;81;21192;-82
2022/03/11 14:00:01;;;;;;;16.57;9.90;;;;;;;-4.39;77.02;100888.04;1765714;81;21717;-81
2022/03/11 14:03:06;;;;;;;17.60;10.55;;;;;;;-4.38;76.22;100892.44;1766295;81;21745;-82
2022/03/11 14:06:23;;;;;;;17.17;9.98;;;;;;;-4.40;76.13;100892.98;1772936;80;21313;-76
2022/03/11 14:09:33;;;;;;;16.85;8.95;;;;;;;-4.38;75.88;100904.45;1780112;80;21157;-76